Time;durP1;ratioP1;P1;durP2;ratioP2;P2;SDS_P1;SDS_P2;PMS_P1;PMS_P2;Temp;Humidity;BMP_temperature;BMP_pressure;BME280_temperature;BME280_humidity;BME280_pressure;Samples;Min_cycle;Max_cycle;Signal;HPM_P1;HPM_P2
2020/12/25 00:01:09;;;;;;;;;4.00;4.00;;;;;12.03;46.83;97830.25;6160566;28;96962;-63
2020/12/25 00:04:11;;;;;;;;;6.00;6.00;;;;;11.95;47.00;97846.13;6161795;28;97055;-63
2020/12/25 00:07:12;;;;;;;;;4.00;4.00;;;;;12.02;47.08;97836.72;6160731;28;98349;-63
2020/12/25 00:10:14;;;;;;;;;7.00;6.80;;;;;11.97;47.06;97850.19;6159445;28;97428;-63
2020/12/25 00:13:15;;;;;;;;;6.00;5.60;;;;;11.87;47.38;97850.13;6160257;28;97401;-62
2020/12/25 00:16:23;;;;;;;;;7.40;7.20;;;;;11.73;47.81;97846.97;6160206;28;96956;-63
2020/12/25 00:19:25;;;;;;;;;7.25;6.25;;;;;11.73;47.77;97848.88;6159750;28;96962;-63
2020/12/25 00:22:27;;;;;;;;;10.33;9.33;;;;;11.68;48.04;97860.41;6159850;28;97545;-63
2020/12/25 00:25:28;;;;;;;;;7.00;6.00;;;;;11.63;48.18;97848.75;6159576;28;96833;-64
2020/12/25 00:28:30;;;;;;;;;8.00;8.00;;;;;11.70;48.27;97885.28;6159090;28;97891;-63
2020/12/25 00:31:34;;;;;;;;;8.00;8.00;;;;;11.61;47.71;97881.38;6157979;28;97490;-63
2020/12/25 00:34:35;;;;;;;;;8.00;8.00;;;;;11.61;47.81;97884.09;6160717;28;97445;-63
2020/12/25 00:37:37;;;;;;;;;11.00;11.00;;;;;11.61;47.51;97878.69;6159922;28;98499;-63
2020/12/25 00:40:43;;;;;;;;;8.33;7.33;;;;;11.63;47.67;97887.34;6160431;28;97591;-63
2020/12/25 00:43:46;;;;;;;;;9.40;8.60;;;;;11.66;47.39;97911.16;6156261;28;97818;-62
2020/12/25 00:46:48;;;;;;;;;9.40;7.60;;;;;11.51;47.16;97886.66;6170570;28;96823;-63
2020/12/25 00:49:54;;;;;;;;;8.00;7.00;;;;;11.48;47.10;97871.00;6157773;28;97326;-63
2020/12/25 00:52:55;;;;;;;;;7.00;6.20;;;;;11.58;46.72;97903.47;6141219;28;98555;-64
2020/12/25 00:55:57;;;;;;;;;6.00;6.00;;;;;11.70;46.66;97906.88;6139640;28;97183;-63
2020/12/25 00:58:58;;;;;;;;;6.00;5.60;;;;;11.56;46.45;97911.03;6158414;28;97087;-63
2020/12/25 01:02:03;;;;;;;;;6.00;5.60;;;;;11.55;46.49;97917.47;6139658;28;97685;-63
2020/12/25 01:05:04;;;;;;;;;7.60;6.60;;;;;11.58;46.56;97916.19;6158998;28;97032;-63
2020/12/25 01:08:06;;;;;;;;;6.00;6.00;;;;;11.64;46.59;97915.16;6158901;28;97657;-62
2020/12/25 01:11:08;;;;;;;;;5.50;5.50;;;;;11.51;46.39;97904.75;6159063;28;98011;-63
2020/12/25 01:14:10;;;;;;;;;8.00;7.00;;;;;11.68;46.60;97924.38;6159520;28;97577;-62
2020/12/25 01:17:15;;;;;;;;;8.00;7.00;;;;;11.70;46.70;97924.94;6141795;28;97555;-62
2020/12/25 01:20:16;;;;;;;;;7.60;7.00;;;;;11.70;46.69;97916.84;6141603;28;97084;-62
2020/12/25 01:23:18;;;;;;;;;7.20;7.20;;;;;11.73;46.52;97921.75;6158954;28;97142;-62
2020/12/25 01:26:19;;;;;;;;;6.00;5.60;;;;;11.72;46.81;97925.53;6158985;28;96921;-62
2020/12/25 01:29:21;;;;;;;;;6.00;5.00;;;;;11.68;46.95;97929.78;6159222;28;97709;-63
2020/12/25 01:32:23;;;;;;;;;7.00;7.00;;;;;11.71;47.25;97929.28;6159244;28;96885;-62
2020/12/25 01:35:24;;;;;;;;;8.20;7.20;;;;;11.60;47.26;97928.34;6159269;28;97937;-62
2020/12/25 01:38:27;;;;;;;;;7.60;7.00;;;;;11.15;47.54;97871.91;6145290;28;97028;-63
2020/12/25 01:41:28;;;;;;;;;8.00;7.00;;;;;11.34;47.59;97907.50;6159157;28;97102;-63
2020/12/25 01:44:30;;;;;;;;;9.00;8.60;;;;;11.45;47.50;97928.16;6159872;28;98637;-62
2020/12/25 01:47:31;;;;;;;;;9.00;9.00;;;;;11.47;47.88;97934.13;6159720;28;97356;-62
2020/12/25 01:50:34;;;;;;;;;10.00;9.00;;;;;11.25;47.85;97907.13;6156933;28;96848;-63
2020/12/25 01:53:37;;;;;;;;;11.00;10.00;;;;;11.55;47.82;97936.38;6159473;28;98844;-62
2020/12/25 01:56:40;;;;;;;;;8.00;8.00;;;;;11.39;48.04;97937.25;6158376;28;97632;-62
2020/12/25 01:59:42;;;;;;;;;7.80;7.80;;;;;11.51;47.97;97942.53;6157382;28;97488;-62
2020/12/25 02:02:44;;;;;;;;;10.00;9.00;;;;;11.43;48.20;97946.50;6157823;28;97056;-62
2020/12/25 02:05:46;;;;;;;;;8.60;7.00;;;;;11.18;48.28;97916.47;6141096;28;96642;-62
2020/12/25 02:08:48;;;;;;;;;10.20;8.20;;;;;11.01;48.35;97911.09;6159203;28;97462;-63
2020/12/25 02:11:49;;;;;;;;;10.00;9.00;;;;;11.53;48.21;97962.00;6162678;28;97632;-62
2020/12/25 02:14:51;;;;;;;;;10.00;9.00;;;;;11.56;47.94;97965.00;6163119;28;98584;-62
2020/12/25 02:17:53;;;;;;;;;11.00;9.60;;;;;11.30;48.06;97936.88;6161973;28;97098;-62
2020/12/25 02:20:54;;;;;;;;;9.00;9.00;;;;;11.44;48.02;97940.00;6160851;28;96907;-63
2020/12/25 02:23:56;;;;;;;;;9.25;9.25;;;;;11.13;48.21;97935.28;6160674;28;96987;-62
2020/12/25 02:26:57;;;;;;;;;9.00;9.00;;;;;11.32;48.39;97971.69;6160543;28;96665;-63
2020/12/25 02:29:59;;;;;;;;;11.00;9.00;;;;;11.45;48.61;97989.41;6160116;28;97641;-63
2020/12/25 02:33:00;;;;;;;;;8.40;7.00;;;;;11.39;48.65;97988.50;6160445;28;97293;-62
2020/12/25 02:36:02;;;;;;;;;9.75;8.75;;;;;11.41;48.86;97975.59;6162700;28;98510;-62
2020/12/25 02:39:04;;;;;;;;;12.00;10.20;;;;;11.54;48.88;97982.50;6161216;28;97249;-63
2020/12/25 02:42:10;;;;;;;;;9.20;9.20;;;;;11.56;49.32;97983.09;6162382;28;97738;-62
2020/12/25 02:45:11;;;;;;;;;9.75;8.75;;;;;11.52;49.66;97981.97;6144722;28;96901;-62
2020/12/25 02:48:13;;;;;;;;;10.00;9.00;;;;;11.53;49.69;97984.38;6161604;28;97137;-62
2020/12/25 02:51:18;;;;;;;;;9.40;8.60;;;;;11.41;49.77;97994.50;6161870;28;98727;-61
2020/12/25 02:54:19;;;;;;;;;9.60;9.00;;;;;11.44;50.02;97995.84;6161662;28;97343;-62
2020/12/25 02:57:21;;;;;;;;;10.00;10.00;;;;;11.47;49.89;97992.69;6160931;28;97235;-62
2020/12/25 03:00:22;;;;;;;;;11.50;9.50;;;;;11.43;50.37;97991.56;6161671;28;97036;-62
2020/12/25 03:03:24;;;;;;;;;11.75;11.00;;;;;11.09;50.13;97944.94;6161260;28;96974;-62
2020/12/25 03:06:25;;;;;;;;;8.00;7.50;;;;;11.43;50.09;97997.78;6161098;28;97056;-62
2020/12/25 03:09:26;;;;;;;;;10.00;9.00;;;;;11.42;50.02;97995.31;6160719;28;97627;-62
2020/12/25 03:12:28;;;;;;;;;11.00;9.20;;;;;11.43;50.09;98003.16;6143984;28;97685;-62
2020/12/25 03:15:29;;;;;;;;;10.00;9.60;;;;;11.45;50.17;98006.41;6160957;28;97230;-62
2020/12/25 03:18:31;;;;;;;;;11.00;10.00;;;;;11.39;50.02;97998.47;6161227;28;97572;-62
2020/12/25 03:21:32;;;;;;;;;10.00;8.80;;;;;11.45;49.90;98008.28;6160744;28;98165;-62
2020/12/25 03:24:34;;;;;;;;;10.00;10.00;;;;;11.22;49.96;97979.66;6161263;28;98580;-62
2020/12/25 03:27:35;;;;;;;;;10.00;10.00;;;;;11.16;49.96;97970.66;6143923;28;97901;-62
2020/12/25 03:30:36;;;;;;;;;10.40;9.80;;;;;11.53;49.78;98030.28;6160583;28;98175;-63
2020/12/25 03:33:38;;;;;;;;;9.00;8.00;;;;;11.60;49.74;98020.13;6161563;28;98979;-62
2020/12/25 03:36:39;;;;;;;;;11.40;11.00;;;;;11.52;49.84;98011.66;6160723;28;97034;-62
2020/12/25 03:39:40;;;;;;;;;10.80;9.80;;;;;11.71;49.51;98029.19;6160149;28;97603;-62
2020/12/25 03:42:43;;;;;;;;;11.00;10.00;;;;;11.68;49.53;98024.25;6160551;28;96975;-62
2020/12/25 03:45:45;;;;;;;;;12.00;10.60;;;;;11.68;49.52;98027.78;6160244;28;96793;-62
2020/12/25 03:48:47;;;;;;;;;10.20;10.00;;;;;11.73;49.21;98035.97;6160213;28;97744;-63
2020/12/25 03:51:49;;;;;;;;;11.80;10.40;;;;;11.68;49.13;98043.16;6161132;28;97319;-62
2020/12/25 03:54:50;;;;;;;;;9.00;8.00;;;;;11.69;48.80;98048.31;6159790;28;97546;-62
2020/12/25 03:57:52;;;;;;;;;10.00;8.60;;;;;11.79;48.79;98044.97;6142218;28;96689;-63
2020/12/25 04:00:54;;;;;;;;;7.00;6.00;;;;;11.52;48.55;98000.84;6160701;28;98815;-63
2020/12/25 04:03:56;;;;;;;;;11.00;10.00;;;;;11.89;48.56;98047.00;6161322;28;99073;-62
2020/12/25 04:06:57;;;;;;;;;8.80;8.20;;;;;11.73;47.99;98035.16;6142741;28;98082;-62
2020/12/25 04:10:00;;;;;;;;;9.50;7.50;;;;;11.92;48.14;98060.00;6160367;28;97095;-62
2020/12/25 04:13:01;;;;;;;;;7.00;7.00;;;;;11.89;47.78;98063.19;6158790;28;97050;-63
2020/12/25 04:16:04;;;;;;;;;7.50;7.00;;;;;11.93;47.47;98067.03;6158810;28;97579;-62
2020/12/25 04:19:05;;;;;;;;;7.40;6.80;;;;;12.00;47.34;98065.78;6140786;28;96904;-62
2020/12/25 04:22:06;;;;;;;;;6.00;5.50;;;;;11.98;47.18;98051.72;6158244;28;96846;-62
2020/12/25 04:25:08;;;;;;;;;7.20;6.20;;;;;12.08;47.02;98072.63;6159417;28;97079;-62
2020/12/25 04:28:10;;;;;;;;;5.00;5.00;;;;;12.08;46.89;98070.75;6142260;28;97650;-63
2020/12/25 04:31:11;;;;;;;;;5.00;5.00;;;;;12.12;46.44;98079.97;6154697;28;97542;-62
2020/12/25 04:34:12;;;;;;;;;5.00;4.00;;;;;12.12;46.49;98077.28;6143108;28;98737;-62
2020/12/25 04:37:14;;;;;;;;;6.00;5.40;;;;;12.13;46.22;98094.31;6159646;28;97009;-62
2020/12/25 04:40:16;;;;;;;;;5.00;5.00;;;;;12.06;46.54;98091.81;6142613;28;98142;-62
2020/12/25 04:43:18;;;;;;;;;5.00;5.00;;;;;12.06;46.61;98096.41;6142418;28;97302;-62
2020/12/25 04:46:21;;;;;;;;;5.00;5.00;;;;;12.05;46.42;98097.47;6160316;28;97084;-62
2020/12/25 04:49:23;;;;;;;;;4.50;4.00;;;;;11.81;46.51;98066.34;6142156;28;96773;-62
2020/12/25 04:52:24;;;;;;;;;4.00;4.00;;;;;11.97;46.43;98095.19;6159606;28;96865;-62
2020/12/25 04:55:26;;;;;;;;;5.80;5.00;;;;;12.02;46.34;98101.47;6159270;28;97616;-63
2020/12/25 04:58:27;;;;;;;;;5.00;5.00;;;;;12.07;46.12;98106.13;6142030;28;96893;-63
2020/12/25 05:01:29;;;;;;;;;4.00;4.00;;;;;12.11;45.97;98107.28;6159332;28;96732;-62
2020/12/25 05:04:30;;;;;;;;;6.00;6.00;;;;;12.10;46.01;98102.94;6160053;28;97452;-62
2020/12/25 05:07:33;;;;;;;;;4.00;4.00;;;;;12.15;45.83;98111.09;6159306;28;97605;-62
2020/12/25 05:10:37;;;;;;;;;7.00;6.00;;;;;12.04;45.54;98103.91;6160090;28;97683;-62
2020/12/25 05:14:00;;;;;;;;;5.25;5.00;;;;;12.13;45.67;98119.44;6159132;28;97509;-63
2020/12/25 05:17:02;;;;;;;;;4.00;4.00;;;;;12.11;45.52;98124.31;6140613;28;98224;-63
2020/12/25 05:20:04;;;;;;;;;4.00;4.00;;;;;12.15;45.62;98114.63;6159302;28;97982;-63
2020/12/25 05:23:09;;;;;;;;;5.00;5.00;;;;;12.15;45.54;98116.50;6159293;28;97483;-63
2020/12/25 05:26:13;;;;;;;;;4.40;4.40;;;;;12.09;45.82;98120.19;6153162;28;97161;-63
2020/12/25 05:29:15;;;;;;;;;7.60;7.00;;;;;11.68;45.75;98059.38;6158192;28;97161;-63
2020/12/25 05:32:17;;;;;;;;;3.80;3.80;;;;;11.86;45.84;98106.91;6158117;28;97705;-63
2020/12/25 05:35:21;;;;;;;;;5.00;4.00;;;;;12.00;45.66;98133.31;6158535;28;96995;-63
2020/12/25 05:38:26;;;;;;;;;6.00;5.00;;;;;11.74;45.73;98090.81;6146332;28;97097;-63
2020/12/25 05:41:28;;;;;;;;;5.00;4.00;;;;;12.07;45.39;98150.16;6159080;28;98669;-63
2020/12/25 05:44:39;;;;;;;;;5.50;4.50;;;;;12.06;45.55;98148.56;6161903;28;97123;-62
2020/12/25 05:47:41;;;;;;;;;4.40;4.40;;;;;11.90;45.72;98137.75;6163477;28;98601;-63
2020/12/25 05:50:44;;;;;;;;;4.80;4.20;;;;;12.04;45.66;98163.34;6163156;28;97515;-63
2020/12/25 05:53:45;;;;;;;;;6.00;5.00;;;;;11.91;45.90;98142.09;6163023;28;97540;-62
2020/12/25 05:56:53;;;;;;;;;4.60;4.00;;;;;11.96;45.85;98159.22;6144497;28;98172;-62
2020/12/25 05:59:56;;;;;;;;;6.00;5.00;;;;;11.75;45.99;98148.34;6161420;28;96963;-63
2020/12/25 06:02:57;;;;;;;;;7.00;6.00;;;;;11.93;46.41;98169.66;6160494;28;97625;-62
2020/12/25 06:06:01;;;;;;;;;6.00;6.00;;;;;11.88;46.32;98170.41;6160640;28;97916;-62
2020/12/25 06:09:06;;;;;;;;;6.00;6.00;;;;;11.41;46.33;98120.50;6159721;28;97129;-62
2020/12/25 06:12:08;;;;;;;;;6.25;6.00;;;;;11.84;46.50;98188.19;6160665;28;97017;-62
2020/12/25 06:15:12;;;;;;;;;7.00;5.00;;;;;11.83;46.38;98208.16;6160280;28;96845;-62
2020/12/25 06:18:23;;;;;;;;;5.80;5.00;;;;;11.81;46.59;98206.78;6160455;28;97680;-62
2020/12/25 06:21:45;;;;;;;;;6.80;6.00;;;;;11.82;46.37;98203.00;6161619;28;96639;-63
2020/12/25 06:24:47;;;;;;;;;6.00;4.40;;;;;11.83;46.61;98210.84;6160631;28;97734;-62
2020/12/25 06:28:00;;;;;;;;;6.40;6.00;;;;;11.82;46.39;98203.00;6161897;28;97126;-63
2020/12/25 06:31:02;;;;;;;;;5.00;5.00;;;;;11.87;46.40;98208.50;6161602;28;97684;-63
2020/12/25 06:34:04;;;;;;;;;5.00;5.00;;;;;11.90;46.30;98214.22;6162796;28;98519;-63
2020/12/25 06:37:11;;;;;;;;;5.60;5.00;;;;;11.94;46.27;98217.22;6162277;28;96941;-63
2020/12/25 06:40:12;;;;;;;;;6.00;5.80;;;;;11.66;46.24;98169.50;6138506;28;97636;-63
2020/12/25 06:43:19;;;;;;;;;6.60;6.00;;;;;11.96;46.08;98221.34;6146449;28;97101;-64
2020/12/25 06:46:28;;;;;;;;;7.00;6.00;;;;;11.96;46.09;98215.94;6161976;28;96545;-63
2020/12/25 06:49:35;;;;;;;;;5.00;4.00;;;;;12.04;45.94;98222.78;6162719;28;97457;-62
2020/12/25 06:52:51;;;;;;;;;6.00;5.00;;;;;12.04;45.95;98234.41;6161480;28;97498;-63
2020/12/25 06:56:12;;;;;;;;;5.75;5.25;;;;;12.05;45.91;98230.66;6161200;28;98117;-63
2020/12/25 06:59:18;;;;;;;;;4.00;4.00;;;;;12.07;45.75;98235.81;6161588;28;98083;-62
2020/12/25 07:02:21;;;;;;;;;8.00;6.00;;;;;12.08;45.72;98235.56;6160899;28;96720;-62
2020/12/25 07:05:23;;;;;;;;;5.00;4.60;;;;;12.09;45.49;98241.78;6161811;28;98012;-62
2020/12/25 07:08:44;;;;;;;;;5.00;5.00;;;;;12.03;45.43;98246.28;6161147;28;98645;-62
2020/12/25 07:11:52;;;;;;;;;6.00;6.00;;;;;12.02;45.44;98257.34;6159903;28;97627;-62
2020/12/25 07:14:54;;;;;;;;;5.20;5.20;;;;;12.03;45.40;98261.66;6143718;28;97163;-62
2020/12/25 07:17:55;;;;;;;;;5.00;4.00;;;;;12.00;45.60;98256.78;6161557;28;97423;-62
2020/12/25 07:21:00;;;;;;;;;6.50;6.00;;;;;12.00;45.40;98257.59;6161242;28;96557;-63
2020/12/25 07:24:01;;;;;;;;;6.00;5.00;;;;;12.00;45.31;98262.16;6160426;28;97688;-62
2020/12/25 07:27:04;;;;;;;;;5.00;5.00;;;;;11.90;45.50;98253.91;6161369;28;97332;-62
2020/12/25 07:30:06;;;;;;;;;4.50;4.50;;;;;11.95;45.54;98273.72;6160522;28;97019;-62
2020/12/25 07:33:07;;;;;;;;;6.00;5.00;;;;;12.01;45.30;98269.22;6158920;28;96914;-62
2020/12/25 07:36:10;;;;;;;;;5.00;5.00;;;;;11.99;45.03;98282.13;6160434;28;96879;-62
2020/12/25 07:39:12;;;;;;;;;6.00;6.00;;;;;11.70;45.23;98246.25;6160168;28;96966;-63
2020/12/25 07:42:13;;;;;;;;;4.80;4.00;;;;;12.00;45.30;98290.00;6160116;28;96983;-63
2020/12/25 07:45:15;;;;;;;;;5.00;5.00;;;;;12.01;44.98;98291.66;6159309;28;98173;-62
2020/12/25 07:48:18;;;;;;;;;5.25;5.00;;;;;11.80;45.26;98273.47;6160404;28;97109;-62
2020/12/25 07:51:20;;;;;;;;;5.00;5.00;;;;;11.97;45.02;98289.69;6143546;28;97463;-63
2020/12/25 07:54:22;;;;;;;;;5.25;5.00;;;;;11.96;45.23;98296.97;6143788;28;97459;-62
2020/12/25 07:57:23;;;;;;;;;5.80;5.80;;;;;11.99;45.31;98293.78;6141246;28;97105;-63
2020/12/25 08:00:26;;;;;;;;;4.40;4.40;;;;;11.72;45.15;98260.34;6160616;28;97426;-62
2020/12/25 08:03:28;;;;;;;;;4.25;4.25;;;;;11.73;45.06;98260.09;6159821;28;98063;-62
2020/12/25 08:06:31;;;;;;;;;7.00;6.00;;;;;11.80;44.94;98278.03;6158637;28;96537;-62
2020/12/25 08:09:37;;;;;;;;;6.00;5.00;;;;;11.99;45.13;98315.38;6142742;28;96864;-62
2020/12/25 08:12:50;;;;;;;;;6.00;6.00;;;;;12.01;44.91;98315.16;6160276;28;97454;-62
2020/12/25 08:15:52;;;;;;;;;8.75;6.75;;;;;12.05;44.87;98319.81;6160779;28;96929;-62
2020/12/25 08:18:53;;;;;;;;;7.00;6.00;;;;;11.92;45.25;98305.81;6160148;28;97708;-62
2020/12/25 08:22:05;;;;;;;;;6.20;4.20;;;;;12.02;45.06;98319.50;6160345;28;96645;-62
2020/12/25 08:25:06;;;;;;;;;8.00;7.00;;;;;12.02;45.25;98322.19;6159784;28;97047;-62
2020/12/25 08:28:08;;;;;;;;;7.00;5.60;;;;;12.01;45.07;98325.94;6160434;28;98689;-63
2020/12/25 08:31:17;;;;;;;;;9.00;7.00;;;;;12.02;45.17;98338.41;6159306;28;97009;-62
2020/12/25 08:34:24;;;;;;;;;10.00;9.00;;;;;12.02;45.48;98339.19;6160379;28;97091;-62
2020/12/25 08:37:26;;;;;;;;;5.00;5.00;;;;;11.94;44.94;98318.00;6159395;28;97394;-65
2020/12/25 08:40:33;;;;;;;;;6.75;6.00;;;;;11.84;45.40;98317.81;6142474;28;97612;-63
2020/12/25 08:43:36;;;;;;;;;7.00;7.00;;;;;12.04;45.34;98352.47;6159930;28;96946;-62
2020/12/25 08:46:38;;;;;;;;;7.00;6.00;;;;;11.84;45.34;98336.72;6159782;28;96556;-63
2020/12/25 08:49:41;;;;;;;;;5.40;5.00;;;;;12.09;45.34;98356.06;6159373;28;97142;-62
2020/12/25 08:52:43;;;;;;;;;7.60;6.60;;;;;12.02;45.29;98363.50;6162033;28;96765;-62
2020/12/25 08:55:47;;;;;;;;;5.40;5.00;;;;;12.08;45.22;98365.25;6157356;28;97281;-63
2020/12/25 08:58:54;;;;;;;;;6.40;5.40;;;;;12.07;45.01;98365.50;6137903;28;98649;-62
2020/12/25 09:01:56;;;;;;;;;5.60;5.60;;;;;12.01;45.10;98364.59;6155845;28;97162;-62
2020/12/25 09:04:58;;;;;;;;;8.00;7.40;;;;;12.01;45.45;98370.00;6160386;28;96456;-62
2020/12/25 09:07:59;;;;;;;;;8.00;8.00;;;;;12.05;45.23;98381.94;6159927;28;97671;-62
2020/12/25 09:11:00;;;;;;;;;5.80;5.40;;;;;12.09;44.81;98376.88;6158782;28;97250;-62
2020/12/25 09:14:03;;;;;;;;;6.00;5.00;;;;;11.97;44.98;98349.13;6149349;28;98149;-62
2020/12/25 09:17:04;;;;;;;;;5.40;5.40;;;;;12.11;45.05;98377.47;6165643;28;96721;-62
2020/12/25 09:20:06;;;;;;;;;6.60;6.00;;;;;12.15;45.13;98376.72;6168654;28;98124;-63
2020/12/25 09:23:07;;;;;;;;;6.00;6.00;;;;;12.18;44.91;98378.09;6163926;28;98082;-62
2020/12/25 09:26:10;;;;;;;;;7.00;6.00;;;;;12.25;45.02;98376.09;6163318;28;97216;-62
2020/12/25 09:29:11;;;;;;;;;6.00;5.00;;;;;12.25;44.90;98375.25;6163897;28;97560;-62
2020/12/25 09:32:13;;;;;;;;;8.60;6.60;;;;;12.24;44.82;98371.72;6163260;28;97090;-62
2020/12/25 09:35:14;;;;;;;;;8.00;7.00;;;;;12.17;44.91;98354.84;6163998;28;98593;-62
2020/12/25 09:38:16;;;;;;;;;9.00;8.00;;;;;12.26;44.86;98374.19;6162777;28;97581;-63
2020/12/25 09:41:17;;;;;;;;;6.00;5.75;;;;;12.26;45.08;98374.19;6151602;28;97174;-62
2020/12/25 09:44:19;;;;;;;;;6.00;6.00;;;;;12.26;44.95;98368.78;6162475;28;98194;-62
2020/12/25 09:47:20;;;;;;;;;9.00;7.40;;;;;12.26;44.94;98366.09;6163162;28;97270;-62
2020/12/25 09:50:22;;;;;;;;;6.00;6.00;;;;;12.25;45.19;98365.28;6150209;28;99546;-63
2020/12/25 09:53:23;;;;;;;;;7.00;7.00;;;;;12.25;44.94;98367.16;6162599;28;98041;-62
2020/12/25 09:56:25;;;;;;;;;6.00;6.00;;;;;12.30;45.03;98372.63;6163062;28;97696;-63
2020/12/25 09:59:26;;;;;;;;;7.00;7.00;;;;;12.31;45.11;98371.59;6162490;28;97029;-62
2020/12/25 10:02:28;;;;;;;;;6.00;6.00;;;;;12.34;45.05;98374.59;6155229;28;97225;-63
2020/12/25 10:05:29;;;;;;;;;7.60;6.20;;;;;12.32;45.10;98384.84;6159397;28;97092;-62
2020/12/25 10:08:31;;;;;;;;;5.60;5.00;;;;;12.32;44.82;98379.44;6161083;28;96744;-63
2020/12/25 10:11:32;;;;;;;;;6.60;6.20;;;;;12.35;44.56;98387.06;6158935;28;98665;-62
2020/12/25 10:14:34;;;;;;;;;7.00;6.00;;;;;12.39;44.48;98376.56;6161619;28;97268;-62
2020/12/25 10:17:35;;;;;;;;;7.00;5.60;;;;;12.42;44.54;98379.59;6160496;28;97253;-63
2020/12/25 10:20:37;;;;;;;;;6.00;5.80;;;;;12.41;44.80;98367.13;6151024;28;97216;-62
2020/12/25 10:23:40;;;;;;;;;9.00;8.00;;;;;12.43;44.41;98367.72;6159783;28;97041;-62
2020/12/25 10:26:41;;;;;;;;;5.40;5.40;;;;;12.53;44.16;98392.22;6161188;28;96767;-63
2020/12/25 10:29:42;;;;;;;;;6.80;6.80;;;;;12.57;43.75;98393.34;6160340;28;98720;-62
2020/12/25 10:32:44;;;;;;;;;5.00;5.00;;;;;12.61;43.91;98390.19;6150441;28;96785;-62
2020/12/25 10:35:46;;;;;;;;;7.00;6.00;;;;;12.67;43.97;98381.06;6159304;28;97664;-63
2020/12/25 10:38:47;;;;;;;;;6.00;6.00;;;;;12.59;44.37;98364.19;6147732;28;96888;-62
2020/12/25 10:41:49;;;;;;;;;7.60;6.60;;;;;12.63;43.99;98379.91;6160544;28;97514;-62
2020/12/25 10:44:50;;;;;;;;;6.20;5.80;;;;;12.53;43.91;98364.34;6161702;28;97224;-62
2020/12/25 10:47:51;;;;;;;;;9.00;8.00;;;;;12.44;44.33;98368.53;6156755;28;97056;-63
2020/12/25 10:50:53;;;;;;;;;11.00;10.00;;;;;12.34;44.31;98347.56;6152951;28;97508;-63
2020/12/25 10:53:54;;;;;;;;;7.20;7.20;;;;;12.49;44.15;98392.97;6162876;28;98658;-62
2020/12/25 10:56:56;;;;;;;;;10.00;9.00;;;;;12.41;44.20;98390.69;6159386;28;96872;-62
2020/12/25 10:59:57;;;;;;;;;11.80;10.00;;;;;12.45;44.64;98394.53;6125849;28;100272;-63
2020/12/25 11:02:59;;;;;;;;;11.00;10.50;;;;;12.24;45.18;98360.91;6152169;28;97295;-62
2020/12/25 11:06:01;;;;;;;;;12.00;11.80;;;;;12.43;45.13;98367.72;6149486;28;98485;-62
2020/12/25 11:09:04;;;;;;;;;14.00;12.40;;;;;12.50;45.16;98387.31;6158782;28;97479;-62
2020/12/25 11:12:06;;;;;;;;;14.00;13.00;;;;;12.58;45.27;98388.78;6152477;28;98282;-62
2020/12/25 11:15:07;;;;;;;;;12.80;12.00;;;;;12.51;45.21;98388.94;6151448;28;97135;-62
2020/12/25 11:18:09;;;;;;;;;16.00;15.00;;;;;12.35;45.56;98362.72;6157882;28;97527;-62
2020/12/25 11:21:17;;;;;;;;;15.00;13.60;;;;;12.40;45.65;98380.91;6158549;28;97261;-63
2020/12/25 11:24:18;;;;;;;;;16.60;14.60;;;;;12.40;45.83;98403.38;6155524;28;97049;-63
2020/12/25 11:27:20;;;;;;;;;13.00;13.00;;;;;12.24;45.87;98393.34;6157937;28;96626;-63
2020/12/25 11:30:21;;;;;;;;;15.00;14.00;;;;;12.29;46.01;98398.03;6159558;28;97341;-63
2020/12/25 11:33:26;;;;;;;;;16.80;15.20;;;;;12.02;46.00;98352.69;6158268;28;97251;-63
2020/12/25 11:36:32;;;;;;;;;13.00;13.00;;;;;12.33;46.32;98408.09;6157500;28;97147;-63
2020/12/25 11:39:34;;;;;;;;;13.00;12.00;;;;;12.03;46.05;98357.03;6154144;28;97612;-63
2020/12/25 11:42:35;;;;;;;;;14.00;13.60;;;;;12.22;45.88;98403.56;6157950;28;97307;-62
2020/12/25 11:45:37;;;;;;;;;12.00;12.00;;;;;12.25;45.88;98399.56;6161261;28;97569;-63
2020/12/25 11:48:38;;;;;;;;;11.75;11.00;;;;;12.32;45.84;98395.63;6152653;28;96954;-62
2020/12/25 11:51:41;;;;;;;;;12.00;11.00;;;;;12.23;46.37;98374.66;6160084;28;97517;-63
2020/12/25 11:54:42;;;;;;;;;13.50;12.50;;;;;12.41;46.22;98388.75;6159182;28;98098;-62
2020/12/25 11:57:44;;;;;;;;;10.00;10.00;;;;;12.45;45.73;98399.94;6149338;28;98494;-62
2020/12/25 12:00:45;;;;;;;;;14.00;12.40;;;;;12.41;45.91;98402.28;6160026;28;96527;-62
2020/12/25 12:03:47;;;;;;;;;13.25;12.00;;;;;12.36;46.06;98396.00;6159901;28;97288;-62
2020/12/25 12:06:49;;;;;;;;;15.40;14.40;;;;;12.42;45.97;98403.09;6158962;28;97639;-62
2020/12/25 12:09:50;;;;;;;;;19.25;16.25;;;;;12.34;46.07;98401.63;6157871;28;96597;-62
2020/12/25 12:12:51;;;;;;;;;17.40;16.20;;;;;12.32;46.54;98405.63;6153008;28;97709;-62
2020/12/25 12:15:53;;;;;;;;;18.00;17.00;;;;;12.25;46.70;98405.81;6139031;28;96997;-62
2020/12/25 12:18:55;;;;;;;;;21.40;19.60;;;;;12.18;46.88;98410.53;6158620;28;97763;-63
2020/12/25 12:21:56;;;;;;;;;22.50;20.50;;;;;12.13;47.32;98408.56;6150696;28;97530;-63
2020/12/25 12:24:57;;;;;;;;;25.00;21.00;;;;;12.14;47.30;98407.50;6159344;28;97357;-63
2020/12/25 12:27:59;;;;;;;;;22.20;21.20;;;;;12.00;47.25;98384.56;6159666;28;96876;-62
2020/12/25 12:31:04;;;;;;;;;24.40;22.00;;;;;12.17;47.54;98418.91;6158516;28;97538;-62
2020/12/25 12:34:05;;;;;;;;;23.60;20.00;;;;;12.18;47.46;98420.53;6158990;28;97227;-62
2020/12/25 12:37:07;;;;;;;;;23.80;21.40;;;;;12.17;47.84;98422.41;6159383;28;98153;-63
2020/12/25 12:40:08;;;;;;;;;29.00;24.60;;;;;12.11;47.79;98402.59;6153060;28;99097;-62
2020/12/25 12:43:10;;;;;;;;;26.40;25.20;;;;;12.27;47.62;98422.59;6153118;28;97167;-62
2020/12/25 12:46:11;;;;;;;;;26.60;23.40;;;;;12.29;47.63;98425.88;6159072;28;97959;-62
2020/12/25 12:49:12;;;;;;;;;26.40;22.40;;;;;12.10;47.35;98389.31;6159220;28;97084;-62
2020/12/25 12:52:14;;;;;;;;;27.00;23.40;;;;;12.30;47.54;98432.09;6158604;28;97286;-62
2020/12/25 12:55:16;;;;;;;;;27.80;26.40;;;;;11.71;47.37;98358.59;6158470;28;96651;-62
2020/12/25 12:58:17;;;;;;;;;26.60;24.60;;;;;12.19;47.50;98435.69;6158760;28;97453;-62
2020/12/25 13:01:30;;;;;;;;;27.20;25.00;;;;;12.09;47.89;98430.91;6155778;28;96656;-62
2020/12/25 13:04:32;;;;;;;;;31.00;26.40;;;;;12.05;47.81;98430.59;6158536;28;96747;-62
2020/12/25 13:07:33;;;;;;;;;27.60;25.00;;;;;12.11;47.83;98432.31;6158055;28;97714;-63
2020/12/25 13:10:35;;;;;;;;;23.00;21.20;;;;;11.99;48.10;98419.91;6157205;28;97635;-63
2020/12/25 13:13:36;;;;;;;;;24.50;23.00;;;;;12.07;47.81;98433.06;6152768;28;97459;-62
2020/12/25 13:16:43;;;;;;;;;23.60;21.80;;;;;11.97;47.73;98439.06;6152494;28;97488;-63
2020/12/25 13:19:44;;;;;;;;;20.60;19.60;;;;;12.00;47.78;98443.16;6152571;28;97081;-63
2020/12/25 13:22:46;;;;;;;;;20.00;18.00;;;;;11.97;47.78;98438.25;6151178;28;99871;-63
2020/12/25 13:25:47;;;;;;;;;23.40;21.00;;;;;11.88;48.23;98439.69;6158594;28;97674;-63
2020/12/25 13:28:50;;;;;;;;;23.00;20.00;;;;;11.93;48.02;98445.19;6158090;28;98459;-63
2020/12/25 13:31:52;;;;;;;;;24.75;21.75;;;;;11.93;47.99;98448.72;6164355;28;97250;-63
2020/12/25 13:34:55;;;;;;;;;22.80;21.80;;;;;11.93;48.10;98453.28;6146143;28;98082;-62
2020/12/25 13:37:56;;;;;;;;;26.25;23.75;;;;;11.94;47.92;98453.06;6158152;28;96691;-62
2020/12/25 13:40:58;;;;;;;;;28.40;24.60;;;;;11.91;48.06;98450.03;6157269;28;96764;-62
2020/12/25 13:44:00;;;;;;;;;25.60;24.40;;;;;11.94;48.13;98450.34;6157228;28;97523;-62
2020/12/25 13:47:01;;;;;;;;;25.20;21.00;;;;;11.96;48.08;98456.34;6158228;28;97148;-62
2020/12/25 13:50:04;;;;;;;;;29.40;24.40;;;;;12.02;48.10;98457.28;6158815;28;97487;-61
2020/12/25 13:53:05;;;;;;;;;25.50;21.50;;;;;12.05;48.25;98463.00;6158262;28;97600;-61
2020/12/25 13:56:08;;;;;;;;;24.40;20.00;;;;;11.84;48.11;98417.75;6158577;28;98589;-61
2020/12/25 13:59:10;;;;;;;;;23.20;20.60;;;;;12.09;48.11;98457.94;6145358;28;97638;-61
2020/12/25 14:02:11;;;;;;;;;24.25;21.25;;;;;12.14;48.14;98507.50;6158732;28;97088;-61
2020/12/25 14:05:13;;;;;;;;;21.50;20.00;;;;;12.19;48.21;98477.03;6161720;28;97269;-62
2020/12/25 14:08:14;;;;;;;;;17.00;16.00;;;;;12.11;47.68;98491.78;6162793;28;97102;-61
2020/12/25 14:11:18;;;;;;;;;14.40;13.00;;;;;12.31;47.10;98493.22;6161333;28;97906;-62
2020/12/25 14:14:20;;;;;;;;;12.00;11.00;;;;;12.11;46.65;98464.75;6157944;28;98041;-61